Time;durP1;ratioP1;P1;durP2;ratioP2;P2;SDS_P1;SDS_P2;PMS_P1;PMS_P2;Temp;Humidity;BMP_temperature;BMP_pressure;BME280_temperature;BME280_humidity;BME280_pressure;Samples;Min_cycle;Max_cycle;Signal;HPM_P1;HPM_P2
2021/08/02 00:02:20;;;;;;;2.60;0.40;;;;;;;;;;4993042;28;20038;-59
2021/08/02 00:04:48;;;;;;;1.85;0.40;;;;;;;;;;4992947;28;20019;-58
2021/08/02 00:07:18;;;;;;;1.05;0.28;;;;;;;;;;4992789;28;20061;-57
2021/08/02 00:09:44;;;;;;;1.33;0.30;;;;;;;;;;4992948;28;20061;-58
2021/08/02 00:12:10;;;;;;;1.02;0.30;;;;;;;;;;4992962;28;20023;-57
2021/08/02 00:14:36;;;;;;;1.48;0.35;;;;;;;;;;4993056;28;20034;-59
2021/08/02 00:17:04;;;;;;;0.52;0.20;;;;;;;;;;4992996;28;20446;-58
2021/08/02 00:19:30;;;;;;;1.90;0.30;;;;;;;;;;4992775;28;20073;-58
2021/08/02 00:21:56;;;;;;;1.27;0.50;;;;;;;;;;4993067;28;20034;-57
2021/08/02 00:24:21;;;;;;;1.38;0.30;;;;;;;;;;4992404;28;20513;-58
2021/08/02 00:26:47;;;;;;;2.10;0.40;;;;;;;;;;5009655;28;20357;-58
2021/08/02 00:29:13;;;;;;;3.00;0.40;;;;;;;;;;5010732;28;20033;-59
2021/08/02 00:31:38;;;;;;;1.63;0.50;;;;;;;;;;5012384;28;20049;-58
2021/08/02 00:34:03;;;;;;;1.83;0.40;;;;;;;;;;5027821;28;20086;-58
2021/08/02 00:36:41;;;;;;;2.65;0.68;;;;;;;;;;5054057;28;20107;-58
2021/08/02 00:39:26;;;;;;;2.20;0.52;;;;;;;;;;5053931;28;20032;-59
2021/08/02 00:41:52;;;;;;;1.25;0.43;;;;;;;;;;4992530;28;20035;-57
2021/08/02 00:44:17;;;;;;;0.75;0.32;;;;;;;;;;4991906;28;20093;-58
2021/08/02 00:46:46;;;;;;;2.03;0.45;;;;;;;;;;4992478;28;20034;-58
2021/08/02 00:49:12;;;;;;;0.80;0.30;;;;;;;;;;4992081;28;20061;-58
2021/08/02 00:51:46;;;;;;;0.63;0.20;;;;;;;;;;4992184;28;20022;-57
2021/08/02 00:54:13;;;;;;;1.63;0.30;;;;;;;;;;4992222;28;20046;-57
2021/08/02 00:56:39;;;;;;;2.85;0.50;;;;;;;;;;4991996;28;20030;-58
2021/08/02 00:59:05;;;;;;;0.20;0.17;;;;;;;;;;4990905;28;20440;-58
2021/08/02 01:01:34;;;;;;;4.07;0.88;;;;;;;;;;4991546;28;20022;-57
2021/08/02 01:04:00;;;;;;;0.20;0.10;;;;;;;;;;4992061;28;20033;-57
2021/08/02 01:06:28;;;;;;;1.75;0.30;;;;;;;;;;4991917;28;20031;-57
2021/08/02 01:08:55;;;;;;;1.30;0.50;;;;;;;;;;4991814;28;20105;-58
2021/08/02 01:11:20;;;;;;;1.60;0.45;;;;;;;;;;4992001;28;20041;-58
2021/08/02 01:13:46;;;;;;;0.75;0.40;;;;;;;;;;4992085;28;20465;-58
2021/08/02 01:16:11;;;;;;;2.70;0.70;;;;;;;;;;4991741;28;20113;-58
2021/08/02 01:18:37;;;;;;;2.28;0.40;;;;;;;;;;5014055;28;20103;-58
2021/08/02 01:21:03;;;;;;;2.95;0.45;;;;;;;;;;5053360;28;20032;-59
2021/08/02 01:23:29;;;;;;;1.13;0.47;;;;;;;;;;5053029;28;20025;-60
2021/08/02 01:25:55;;;;;;;2.70;0.47;;;;;;;;;;5053160;28;20112;-58
2021/08/02 01:28:20;;;;;;;2.88;0.82;;;;;;;;;;5052948;28;20017;-58
2021/08/02 01:30:50;;;;;;;0.95;0.43;;;;;;;;;;5053202;28;20020;-58
2021/08/02 01:33:16;;;;;;;1.95;0.73;;;;;;;;;;5052638;28;20052;-58
2021/08/02 01:35:41;;;;;;;0.95;0.40;;;;;;;;;;5053305;28;20375;-58
2021/08/02 01:38:07;;;;;;;1.27;0.40;;;;;;;;;;5052939;28;20100;-58
2021/08/02 01:40:33;;;;;;;2.05;0.43;;;;;;;;;;5053151;28;20033;-58
2021/08/02 01:43:05;;;;;;;1.33;0.50;;;;;;;;;;5053029;28;20017;-58
2021/08/02 01:45:32;;;;;;;0.93;0.50;;;;;;;;;;5052913;28;20009;-59
2021/08/02 01:47:57;;;;;;;0.95;0.28;;;;;;;;;;5053188;28;20116;-59
2021/08/02 01:50:25;;;;;;;1.70;0.57;;;;;;;;;;5052515;28;20088;-59
2021/08/02 01:53:01;;;;;;;2.10;0.40;;;;;;;;;;5052611;28;20242;-58
2021/08/02 01:55:26;;;;;;;0.82;0.28;;;;;;;;;;5052942;28;20025;-58
2021/08/02 01:57:53;;;;;;;0.60;0.38;;;;;;;;;;5052878;28;20017;-58
2021/08/02 02:00:18;;;;;;;1.55;0.30;;;;;;;;;;5052481;28;20057;-58
2021/08/02 02:03:07;;;;;;;1.75;0.40;;;;;;;;;;5052699;28;20087;-58
2021/08/02 02:05:34;;;;;;;0.95;0.43;;;;;;;;;;5052771;28;20021;-58
2021/08/02 02:07:59;;;;;;;0.80;0.20;;;;;;;;;;5052772;28;20384;-57
2021/08/02 02:10:25;;;;;;;2.72;0.63;;;;;;;;;;5052704;28;20014;-58
2021/08/02 02:12:52;;;;;;;3.60;0.43;;;;;;;;;;5052880;28;20360;-58
2021/08/02 02:15:17;;;;;;;0.40;0.20;;;;;;;;;;5052133;28;20080;-58
2021/08/02 02:17:44;;;;;;;2.38;1.10;;;;;;;;;;5052920;28;20495;-58
2021/08/02 02:20:10;;;;;;;1.92;0.77;;;;;;;;;;5053682;28;20025;-58
2021/08/02 02:22:36;;;;;;;2.08;0.55;;;;;;;;;;5056335;28;20032;-57
2021/08/02 02:25:02;;;;;;;1.50;0.45;;;;;;;;;;5056557;28;20025;-58
2021/08/02 02:27:27;;;;;;;0.82;0.20;;;;;;;;;;5055168;28;20160;-58
2021/08/02 02:29:54;;;;;;;0.30;0.30;;;;;;;;;;5055975;28;20009;-58
2021/08/02 02:32:19;;;;;;;1.08;0.30;;;;;;;;;;5056161;28;20108;-58
2021/08/02 02:34:46;;;;;;;0.95;0.43;;;;;;;;;;5055325;28;20107;-59
2021/08/02 02:37:11;;;;;;;0.55;0.40;;;;;;;;;;5056119;28;20032;-59
2021/08/02 02:39:37;;;;;;;0.90;0.30;;;;;;;;;;5056363;28;20025;-59
2021/08/02 02:42:02;;;;;;;1.67;0.60;;;;;;;;;;5056237;28;20059;-58
2021/08/02 02:44:28;;;;;;;0.73;0.28;;;;;;;;;;5055976;28;20475;-58
2021/08/02 02:46:54;;;;;;;2.38;0.43;;;;;;;;;;5056152;28;20505;-58
2021/08/02 02:49:20;;;;;;;1.50;0.30;;;;;;;;;;5056021;28;20096;-58
2021/08/02 02:51:47;;;;;;;1.52;0.90;;;;;;;;;;5055978;28;20021;-59
2021/08/02 02:54:13;;;;;;;1.02;0.50;;;;;;;;;;5055688;28;20407;-58
2021/08/02 02:56:38;;;;;;;0.77;0.22;;;;;;;;;;5056137;28;20023;-58
2021/08/02 02:59:04;;;;;;;2.00;0.73;;;;;;;;;;5055588;28;20056;-58
2021/08/02 03:01:38;;;;;;;0.47;0.20;;;;;;;;;;5055758;28;20033;-57
2021/08/02 03:04:04;;;;;;;1.60;0.47;;;;;;;;;;5055515;28;20379;-58
2021/08/02 03:06:29;;;;;;;0.47;0.20;;;;;;;;;;5055568;28;20029;-58
2021/08/02 03:08:56;;;;;;;1.50;0.40;;;;;;;;;;5055879;28;20024;-57
2021/08/02 03:11:21;;;;;;;0.73;0.60;;;;;;;;;;5055734;28;20044;-58
2021/08/02 03:13:50;;;;;;;0.25;0.22;;;;;;;;;;5054411;28;20021;-57
2021/08/02 03:16:15;;;;;;;0.63;0.30;;;;;;;;;;5055606;28;20391;-58
2021/08/02 03:18:40;;;;;;;1.80;0.50;;;;;;;;;;5055429;28;20043;-59
2021/08/02 03:21:06;;;;;;;1.83;0.30;;;;;;;;;;5055344;28;20464;-57
2021/08/02 03:23:57;;;;;;;0.93;0.30;;;;;;;;;;5055359;28;20021;-57
2021/08/02 03:26:32;;;;;;;1.58;0.50;;;;;;;;;;5052009;28;20033;-58
2021/08/02 03:29:10;;;;;;;0.80;0.20;;;;;;;;;;5055034;28;20477;-59
2021/08/02 03:31:42;;;;;;;2.35;0.50;;;;;;;;;;5055340;28;20032;-57
2021/08/02 03:34:10;;;;;;;0.45;0.20;;;;;;;;;;5054901;28;20020;-59
2021/08/02 03:36:36;;;;;;;2.08;0.40;;;;;;;;;;5055155;28;20027;-58
2021/08/02 03:39:01;;;;;;;2.63;0.40;;;;;;;;;;5055075;28;20040;-59
2021/08/02 03:41:27;;;;;;;1.98;0.40;;;;;;;;;;5055052;28;20500;-58
2021/08/02 03:43:52;;;;;;;0.47;0.15;;;;;;;;;;5054695;28;20481;-58
2021/08/02 03:46:18;;;;;;;0.35;0.20;;;;;;;;;;5054894;28;20021;-58
2021/08/02 03:48:44;;;;;;;1.55;0.30;;;;;;;;;;5054994;28;20367;-58
2021/08/02 03:51:09;;;;;;;0.57;0.20;;;;;;;;;;5055002;28;20487;-59
2021/08/02 03:53:44;;;;;;;0.75;0.30;;;;;;;;;;5054842;28;20474;-58
2021/08/02 03:56:10;;;;;;;0.57;0.20;;;;;;;;;;5054759;28;20036;-59
2021/08/02 03:58:36;;;;;;;2.30;0.30;;;;;;;;;;5054773;28;20020;-58
2021/08/02 04:01:01;;;;;;;0.60;0.20;;;;;;;;;;5054431;28;20072;-58
2021/08/02 04:03:27;;;;;;;0.85;0.38;;;;;;;;;;5053190;28;20363;-58
2021/08/02 04:05:54;;;;;;;1.25;0.20;;;;;;;;;;5054598;28;20018;-57
2021/08/02 04:08:19;;;;;;;2.97;0.25;;;;;;;;;;5054548;28;20127;-59
2021/08/02 04:10:44;;;;;;;2.03;0.30;;;;;;;;;;5054633;28;20487;-58
2021/08/02 04:13:10;;;;;;;0.73;0.40;;;;;;;;;;5054345;28;20551;-58
2021/08/02 04:15:37;;;;;;;1.40;0.30;;;;;;;;;;5054372;28;20464;-58
2021/08/02 04:18:03;;;;;;;2.60;0.85;;;;;;;;;;5054485;28;20029;-57
2021/08/02 04:20:28;;;;;;;0.30;0.30;;;;;;;;;;5054481;28;20067;-58
2021/08/02 04:22:53;;;;;;;0.70;0.25;;;;;;;;;;5054371;28;20025;-58
2021/08/02 04:25:18;;;;;;;0.98;0.30;;;;;;;;;;5054069;28;20108;-58
2021/08/02 04:27:44;;;;;;;1.73;0.40;;;;;;;;;;5054144;28;20368;-58
2021/08/02 04:30:09;;;;;;;1.05;0.43;;;;;;;;;;5053958;28;20013;-58
2021/08/02 04:32:34;;;;;;;1.75;0.43;;;;;;;;;;5054303;28;20025;-58
2021/08/02 04:35:00;;;;;;;1.08;0.10;;;;;;;;;;5053649;28;20027;-58
2021/08/02 04:37:25;;;;;;;1.58;0.60;;;;;;;;;;5054109;28;20025;-58
2021/08/02 04:39:50;;;;;;;1.17;0.40;;;;;;;;;;5053905;28;20036;-58
2021/08/02 04:42:15;;;;;;;2.10;0.47;;;;;;;;;;5053404;28;20071;-58
2021/08/02 04:44:40;;;;;;;0.63;0.30;;;;;;;;;;5053477;28;20017;-58
2021/08/02 04:47:06;;;;;;;0.90;0.20;;;;;;;;;;5053968;28;20511;-58
2021/08/02 04:49:31;;;;;;;1.20;0.30;;;;;;;;;;5053741;28;20028;-59
2021/08/02 04:51:56;;;;;;;3.42;0.50;;;;;;;;;;5053760;28;20771;-58
2021/08/02 04:54:21;;;;;;;3.17;0.40;;;;;;;;;;5053740;28;20017;-58
2021/08/02 04:56:46;;;;;;;1.20;0.10;;;;;;;;;;5053653;28;20028;-58
2021/08/02 04:59:12;;;;;;;1.45;0.50;;;;;;;;;;5053294;28;20278;-58
2021/08/02 05:01:37;;;;;;;0.67;0.40;;;;;;;;;;5053518;28;20484;-58
2021/08/02 05:04:02;;;;;;;0.80;0.25;;;;;;;;;;5053245;28;20359;-58
2021/08/02 05:06:27;;;;;;;1.07;0.30;;;;;;;;;;5053116;28;20407;-59
2021/08/02 05:08:52;;;;;;;0.55;0.20;;;;;;;;;;5053639;28;20242;-59
2021/08/02 05:11:18;;;;;;;1.80;0.63;;;;;;;;;;5053225;28;20372;-57
2021/08/02 05:13:43;;;;;;;1.15;0.40;;;;;;;;;;5053542;28;20246;-58
2021/08/02 05:16:08;;;;;;;1.95;0.40;;;;;;;;;;5053449;28;20048;-58
2021/08/02 05:18:34;;;;;;;1.27;0.63;;;;;;;;;;5053445;28;20051;-58
2021/08/02 05:20:59;;;;;;;1.38;0.20;;;;;;;;;;5053466;28;20021;-58
2021/08/02 05:23:24;;;;;;;2.15;0.45;;;;;;;;;;5053079;28;20021;-58
2021/08/02 05:25:50;;;;;;;1.75;0.52;;;;;;;;;;5053421;28;20367;-58
2021/08/02 05:28:16;;;;;;;1.80;0.30;;;;;;;;;;5052749;28;20017;-58
2021/08/02 05:30:41;;;;;;;0.20;0.17;;;;;;;;;;5053455;28;20009;-59
2021/08/02 05:33:06;;;;;;;2.58;0.40;;;;;;;;;;5053088;28;20506;-59
2021/08/02 05:35:31;;;;;;;1.60;0.30;;;;;;;;;;5053074;28;20028;-58
2021/08/02 05:37:56;;;;;;;1.33;0.40;;;;;;;;;;5052986;28;20250;-59
2021/08/02 05:40:22;;;;;;;4.10;0.50;;;;;;;;;;5053034;28;20021;-57
2021/08/02 05:42:47;;;;;;;2.40;0.82;;;;;;;;;;5053265;28;20260;-58
2021/08/02 05:45:12;;;;;;;1.25;0.40;;;;;;;;;;5052787;28;20017;-58
2021/08/02 05:47:38;;;;;;;2.20;0.43;;;;;;;;;;5053161;28;20017;-58
2021/08/02 05:50:04;;;;;;;1.45;0.32;;;;;;;;;;5052771;28;20475;-59
2021/08/02 05:52:29;;;;;;;1.75;0.47;;;;;;;;;;5052773;28;20017;-58
2021/08/02 05:54:54;;;;;;;0.93;0.30;;;;;;;;;;5052896;28;20196;-58
2021/08/02 05:57:23;;;;;;;1.83;0.63;;;;;;;;;;5057095;28;20017;-58
2021/08/02 05:59:48;;;;;;;0.73;0.35;;;;;;;;;;5056121;28;20412;-59
2021/08/02 06:02:13;;;;;;;1.40;0.30;;;;;;;;;;5056869;28;20047;-58
2021/08/02 06:04:39;;;;;;;0.70;0.38;;;;;;;;;;5057014;28;20036;-58
2021/08/02 06:07:04;;;;;;;1.73;0.32;;;;;;;;;;5054743;28;20044;-59
2021/08/02 06:09:29;;;;;;;1.15;0.60;;;;;;;;;;5056819;28;20592;-58
2021/08/02 06:11:54;;;;;;;1.23;0.40;;;;;;;;;;5055726;28;20028;-58
2021/08/02 06:14:20;;;;;;;2.35;0.50;;;;;;;;;;5056131;28;20029;-58
2021/08/02 06:16:45;;;;;;;2.05;0.20;;;;;;;;;;5056282;28;20472;-58
2021/08/02 06:19:10;;;;;;;1.48;0.30;;;;;;;;;;5056417;28;20021;-58
2021/08/02 06:21:35;;;;;;;1.05;0.40;;;;;;;;;;5056391;28;20024;-58
2021/08/02 06:24:01;;;;;;;2.20;0.50;;;;;;;;;;5056487;28;20055;-58
2021/08/02 06:26:26;;;;;;;1.20;0.30;;;;;;;;;;5056240;28;20281;-58
2021/08/02 06:28:51;;;;;;;2.22;0.50;;;;;;;;;;5056617;28;20087;-58
2021/08/02 06:31:20;;;;;;;2.88;0.75;;;;;;;;;;5055955;28;20023;-58
2021/08/02 06:33:46;;;;;;;1.95;0.40;;;;;;;;;;5055732;28;20376;-58
2021/08/02 06:36:11;;;;;;;1.25;0.20;;;;;;;;;;5055836;28;20032;-58
2021/08/02 06:38:37;;;;;;;1.50;0.30;;;;;;;;;;5055332;28;20091;-58
2021/08/02 06:41:03;;;;;;;2.70;0.40;;;;;;;;;;5056324;28;20036;-58
2021/08/02 06:43:28;;;;;;;1.02;0.43;;;;;;;;;;5055821;28;20029;-58
2021/08/02 06:45:53;;;;;;;1.08;0.38;;;;;;;;;;5055395;28;20028;-58
2021/08/02 06:48:19;;;;;;;3.13;0.55;;;;;;;;;;5055635;28;20023;-58
2021/08/02 06:50:44;;;;;;;3.08;0.63;;;;;;;;;;5056093;28;20021;-58
2021/08/02 06:53:09;;;;;;;2.78;0.43;;;;;;;;;;5054228;28;20522;-58
2021/08/02 06:55:34;;;;;;;1.42;0.38;;;;;;;;;;5043812;28;20032;-59
2021/08/02 06:58:00;;;;;;;0.45;0.40;;;;;;;;;;5054758;28;20506;-59
2021/08/02 07:00:25;;;;;;;1.58;0.47;;;;;;;;;;5054702;28;20487;-59
2021/08/02 07:02:50;;;;;;;1.53;0.47;;;;;;;;;;5055598;28;20096;-58
2021/08/02 07:05:15;;;;;;;1.00;0.50;;;;;;;;;;5036832;28;20279;-59
2021/08/02 07:07:41;;;;;;;5.65;1.08;;;;;;;;;;5035639;28;20017;-58
2021/08/02 07:10:06;;;;;;;2.40;1.20;;;;;;;;;;5035933;28;20017;-59
2021/08/02 07:12:31;;;;;;;57.85;40.78;;;;;;;;;;5054435;28;20903;-60
2021/08/02 07:14:57;;;;;;;58.67;41.22;;;;;;;;;;5036746;28;20380;-59
2021/08/02 07:17:22;;;;;;;54.72;38.50;;;;;;;;;;5035597;28;20025;-58
2021/08/02 07:19:47;;;;;;;41.97;29.92;;;;;;;;;;5052233;28;20028;-57
2021/08/02 07:22:12;;;;;;;22.43;17.57;;;;;;;;;;5054746;28;20047;-58
2021/08/02 07:24:38;;;;;;;14.75;12.02;;;;;;;;;;5044006;28;20748;-58
2021/08/02 07:27:03;;;;;;;14.68;9.25;;;;;;;;;;5054588;28;20098;-59
2021/08/02 07:29:28;;;;;;;8.90;6.15;;;;;;;;;;5059745;28;20013;-63
2021/08/02 07:31:53;;;;;;;7.68;5.35;;;;;;;;;;5053552;28;20021;-60
2021/08/02 07:34:19;;;;;;;5.63;4.17;;;;;;;;;;5045459;28;20029;-62
2021/08/02 07:36:44;;;;;;;5.93;3.70;;;;;;;;;;5037533;28;20270;-64
2021/08/02 07:39:09;;;;;;;4.87;3.13;;;;;;;;;;5046753;28;20033;-62
2021/08/02 07:41:34;;;;;;;3.22;2.10;;;;;;;;;;5040588;28;20345;-66
2021/08/02 07:44:00;;;;;;;5.78;2.13;;;;;;;;;;5043306;28;20060;-64
2021/08/02 07:46:26;;;;;;;3.17;1.90;;;;;;;;;;5054647;28;20013;-61
2021/08/02 07:48:52;;;;;;;2.72;1.60;;;;;;;;;;5054633;28;20372;-60
2021/08/02 07:51:20;;;;;;;1.25;1.10;;;;;;;;;;5052478;28;20017;-60
2021/08/02 07:53:45;;;;;;;5.22;1.70;;;;;;;;;;5050022;28;20487;-64
2021/08/02 07:56:11;;;;;;;2.60;1.20;;;;;;;;;;5052437;28;20024;-62
2021/08/02 07:58:36;;;;;;;2.85;1.50;;;;;;;;;;5053629;28;20460;-62
2021/08/02 08:01:01;;;;;;;4.25;1.00;;;;;;;;;;5042341;28;20059;-64
2021/08/02 08:03:26;;;;;;;2.20;0.93;;;;;;;;;;5053250;28;20036;-61
2021/08/02 08:05:53;;;;;;;4.18;1.15;;;;;;;;;;5054571;28;20366;-64
2021/08/02 08:08:20;;;;;;;0.80;0.70;;;;;;;;;;5047974;28;20029;-61
2021/08/02 08:10:45;;;;;;;2.08;0.73;;;;;;;;;;5054112;28;20099;-61
2021/08/02 08:13:10;;;;;;;1.63;0.70;;;;;;;;;;5054085;28;20100;-63
2021/08/02 08:15:38;;;;;;;1.05;0.50;;;;;;;;;;5069325;28;20253;-66
2021/08/02 08:18:03;;;;;;;1.35;0.55;;;;;;;;;;5053423;28;20025;-65
2021/08/02 08:20:28;;;;;;;1.42;0.70;;;;;;;;;;5054337;28;20022;-63
2021/08/02 08:22:54;;;;;;;1.33;0.77;;;;;;;;;;5053235;28;20100;-65
2021/08/02 08:25:19;;;;;;;1.20;0.60;;;;;;;;;;5053192;28;20024;-67
2021/08/02 08:27:45;;;;;;;0.88;0.50;;;;;;;;;;5053131;28;20143;-67
2021/08/02 08:30:10;;;;;;;1.85;0.80;;;;;;;;;;5053114;28;20024;-68
2021/08/02 08:32:36;;;;;;;2.70;0.63;;;;;;;;;;5061104;28;20499;-66
2021/08/02 08:35:01;;;;;;;1.80;0.55;;;;;;;;;;5054795;28;20067;-65
2021/08/02 08:37:26;;;;;;;0.93;0.70;;;;;;;;;;5052241;28;20025;-65
2021/08/02 08:39:51;;;;;;;1.58;0.50;;;;;;;;;;5048826;28;20043;-65
2021/08/02 08:42:17;;;;;;;2.03;0.55;;;;;;;;;;5053928;28;20078;-65
2021/08/02 08:44:42;;;;;;;2.03;0.60;;;;;;;;;;5050311;28;20039;-65
2021/08/02 08:47:08;;;;;;;2.63;0.70;;;;;;;;;;5047341;28;20075;-65
2021/08/02 08:49:33;;;;;;;3.53;0.70;;;;;;;;;;5051157;28;20021;-66
2021/08/02 08:51:59;;;;;;;1.55;0.70;;;;;;;;;;5052447;28;20052;-65
2021/08/02 08:54:24;;;;;;;1.10;0.60;;;;;;;;;;5050947;28;20025;-65
2021/08/02 08:56:51;;;;;;;0.88;0.50;;;;;;;;;;5051486;28;20024;-65
2021/08/02 08:59:16;;;;;;;3.10;0.45;;;;;;;;;;5051816;28;20032;-65
2021/08/02 09:01:41;;;;;;;0.88;0.25;;;;;;;;;;5052654;28;20074;-66
2021/08/02 09:04:07;;;;;;;2.97;0.90;;;;;;;;;;5053265;28;20048;-66
2021/08/02 09:06:43;;;;;;;3.45;0.75;;;;;;;;;;5053395;28;20597;-66
2021/08/02 09:09:09;;;;;;;0.40;0.20;;;;;;;;;;5053671;28;20051;-67
2021/08/02 09:11:35;;;;;;;1.05;0.40;;;;;;;;;;5053579;28;20087;-68
2021/08/02 09:14:08;;;;;;;1.42;0.47;;;;;;;;;;5053691;28;20063;-67
2021/08/02 09:16:33;;;;;;;0.82;0.30;;;;;;;;;;5049673;28;20052;-66
2021/08/02 09:19:03;;;;;;;1.60;0.45;;;;;;;;;;5053677;28;20052;-65
2021/08/02 09:21:43;;;;;;;1.48;0.50;;;;;;;;;;5052019;28;20020;-65
2021/08/02 09:24:08;;;;;;;1.95;0.68;;;;;;;;;;5051748;28;20036;-66
2021/08/02 09:26:36;;;;;;;1.42;0.40;;;;;;;;;;5055593;28;20021;-66
2021/08/02 09:29:09;;;;;;;2.15;0.65;;;;;;;;;;5053289;28;20051;-67
2021/08/02 09:31:39;;;;;;;1.93;0.50;;;;;;;;;;5047549;28;20044;-66
2021/08/02 09:34:05;;;;;;;2.13;0.30;;;;;;;;;;5053057;28;20293;-66
2021/08/02 09:36:44;;;;;;;2.80;1.35;;;;;;;;;;5048794;28;20021;-65
2021/08/02 09:39:16;;;;;;;2.33;0.80;;;;;;;;;;5035111;28;20144;-68
2021/08/02 09:41:42;;;;;;;1.65;0.40;;;;;;;;;;5071697;28;20055;-65
2021/08/02 09:44:17;;;;;;;0.55;0.20;;;;;;;;;;5053109;28;20028;-64
2021/08/02 09:46:51;;;;;;;1.23;0.30;;;;;;;;;;5046121;28;20021;-64
2021/08/02 09:49:16;;;;;;;0.82;0.30;;;;;;;;;;5050215;28;20112;-68
2021/08/02 09:51:42;;;;;;;3.47;0.30;;;;;;;;;;5053319;28;20108;-67
2021/08/02 09:54:08;;;;;;;3.45;0.28;;;;;;;;;;5059802;28;20258;-66
2021/08/02 09:56:33;;;;;;;0.43;0.20;;;;;;;;;;5049841;28;20040;-68
2021/08/02 09:58:58;;;;;;;3.15;0.77;;;;;;;;;;5056391;28;20021;-65
2021/08/02 10:01:23;;;;;;;1.52;0.38;;;;;;;;;;5057631;28;20052;-66
2021/08/02 10:03:49;;;;;;;1.65;0.40;;;;;;;;;;5053359;28;20033;-66
2021/08/02 10:06:15;;;;;;;1.70;0.50;;;;;;;;;;5052255;28;20010;-66
2021/08/02 10:08:41;;;;;;;0.57;0.38;;;;;;;;;;5052043;28;20021;-66
2021/08/02 10:11:06;;;;;;;3.05;0.70;;;;;;;;;;5052954;28;20058;-66
2021/08/02 10:13:33;;;;;;;2.15;0.50;;;;;;;;;;5051637;28;20026;-65
2021/08/02 10:16:00;;;;;;;2.63;0.30;;;;;;;;;;5052310;28;20452;-66
2021/08/02 10:18:25;;;;;;;1.33;0.50;;;;;;;;;;5050465;28;20017;-65
2021/08/02 10:21:01;;;;;;;1.35;0.57;;;;;;;;;;5052598;28;20387;-66
2021/08/02 10:23:26;;;;;;;1.25;0.60;;;;;;;;;;5052394;28;20412;-65
2021/08/02 10:25:52;;;;;;;2.75;0.70;;;;;;;;;;5052379;28;20076;-65
2021/08/02 10:28:18;;;;;;;2.15;0.85;;;;;;;;;;5051066;28;20048;-65
2021/08/02 10:30:48;;;;;;;0.90;0.45;;;;;;;;;;5051296;28;20096;-66
2021/08/02 10:33:13;;;;;;;1.88;0.50;;;;;;;;;;5052189;28;20027;-66
2021/08/02 10:35:46;;;;;;;1.15;0.30;;;;;;;;;;5051351;28;20013;-66
2021/08/02 10:38:13;;;;;;;0.70;0.40;;;;;;;;;;5052061;28;20021;-66
2021/08/02 10:40:57;;;;;;;1.35;0.40;;;;;;;;;;5050337;28;20513;-64
2021/08/02 10:43:36;;;;;;;2.25;0.38;;;;;;;;;;5056055;28;20036;-65
2021/08/02 10:46:15;;;;;;;2.22;0.70;;;;;;;;;;5056097;28;20020;-66
2021/08/02 10:48:40;;;;;;;2.28;0.38;;;;;;;;;;5055207;28;20017;-65
2021/08/02 10:51:10;;;;;;;2.95;0.93;;;;;;;;;;5055869;28;20032;-65
2021/08/02 10:53:35;;;;;;;4.63;1.00;;;;;;;;;;5055344;28;20062;-66
2021/08/02 10:56:09;;;;;;;2.42;0.50;;;;;;;;;;5054641;28;20009;-66
2021/08/02 10:58:39;;;;;;;1.95;0.45;;;;;;;;;;5053814;28;20020;-66
2021/08/02 11:01:06;;;;;;;1.42;0.40;;;;;;;;;;5055088;28;20045;-65
2021/08/02 11:03:33;;;;;;;1.05;0.30;;;;;;;;;;5055554;28;20380;-65
2021/08/02 11:06:05;;;;;;;2.67;0.82;;;;;;;;;;5055746;28;20021;-65
2021/08/02 11:08:34;;;;;;;1.35;0.40;;;;;;;;;;5055639;28;20459;-65
2021/08/02 11:11:02;;;;;;;1.55;0.52;;;;;;;;;;5055591;28;20063;-66
2021/08/02 11:13:27;;;;;;;2.50;0.35;;;;;;;;;;5055706;28;20403;-66
2021/08/02 11:15:53;;;;;;;1.27;0.65;;;;;;;;;;5055537;28;20067;-65
2021/08/02 11:18:28;;;;;;;1.73;0.52;;;;;;;;;;5054784;28;20028;-65
2021/08/02 11:20:56;;;;;;;1.00;0.38;;;;;;;;;;5055042;28;20027;-65
2021/08/02 11:23:31;;;;;;;1.48;0.40;;;;;;;;;;5055227;28;20075;-65
2021/08/02 11:26:10;;;;;;;2.22;0.38;;;;;;;;;;5055129;28;20017;-65
2021/08/02 11:28:41;;;;;;;2.95;0.95;;;;;;;;;;5055299;28;20063;-65
2021/08/02 11:31:06;;;;;;;3.67;0.60;;;;;;;;;;5049704;28;20017;-65
2021/08/02 11:33:32;;;;;;;3.38;0.52;;;;;;;;;;5055072;28;20449;-65
2021/08/02 11:35:57;;;;;;;3.42;0.82;;;;;;;;;;5054832;28;20505;-65
2021/08/02 11:38:32;;;;;;;0.45;0.40;;;;;;;;;;5055112;28;20108;-65
2021/08/02 11:40:57;;;;;;;2.35;0.40;;;;;;;;;;5054982;28;20143;-64
2021/08/02 11:43:23;;;;;;;2.13;0.70;;;;;;;;;;5053093;28;20104;-66
2021/08/02 11:45:48;;;;;;;1.70;0.32;;;;;;;;;;5054011;28;20032;-65
2021/08/02 11:48:13;;;;;;;1.65;0.50;;;;;;;;;;5061736;28;20375;-65
2021/08/02 11:50:39;;;;;;;1.80;0.30;;;;;;;;;;5054392;28;20360;-65
2021/08/02 11:53:04;;;;;;;1.75;0.40;;;;;;;;;;5050375;28;20024;-66
2021/08/02 11:55:30;;;;;;;1.98;0.50;;;;;;;;;;5050567;28;20036;-65
2021/08/02 11:58:03;;;;;;;0.93;0.43;;;;;;;;;;5064941;28;20025;-65
2021/08/02 12:00:28;;;;;;;2.35;0.40;;;;;;;;;;5054261;28;20053;-64
2021/08/02 12:03:04;;;;;;;2.17;0.65;;;;;;;;;;5052813;28;20028;-64
2021/08/02 12:05:30;;;;;;;1.20;0.52;;;;;;;;;;5054535;28;20049;-63
2021/08/02 12:07:56;;;;;;;0.63;0.20;;;;;;;;;;5054645;28;20017;-63
2021/08/02 12:10:24;;;;;;;1.15;0.47;;;;;;;;;;5054029;28;20017;-65
2021/08/02 12:12:59;;;;;;;1.40;0.40;;;;;;;;;;5053323;28;20471;-61
2021/08/02 12:15:24;;;;;;;;;;;;;;;;;;5054742;28;20036;-62
2021/08/02 12:17:50;;;;;;;3.27;0.40;;;;;;;;;;5054527;28;19932;-61
2021/08/02 12:20:15;;;;;;;0.40;0.30;;;;;;;;;;5053592;28;20261;-64
2021/08/02 12:22:41;;;;;;;1.83;0.50;;;;;;;;;;5054494;28;20040;-65
2021/08/02 12:25:07;;;;;;;0.85;0.20;;;;;;;;;;5052636;28;20025;-64
2021/08/02 12:27:32;;;;;;;2.75;0.57;;;;;;;;;;5053655;28;20021;-64
2021/08/02 12:29:59;;;;;;;1.48;0.35;;;;;;;;;;5053737;28;20413;-63
2021/08/02 12:32:38;;;;;;;0.95;0.50;;;;;;;;;;5053442;28;20062;-62
2021/08/02 12:35:04;;;;;;;1.23;0.50;;;;;;;;;;5050207;28;20055;-62
2021/08/02 12:37:30;;;;;;;1.42;0.30;;;;;;;;;;5053459;28;20083;-63
2021/08/02 12:39:55;;;;;;;1.52;0.40;;;;;;;;;;5054095;28;20391;-61
2021/08/02 12:42:25;;;;;;;1.00;0.20;;;;;;;;;;5053615;28;20029;-63
2021/08/02 12:44:51;;;;;;;2.05;0.22;;;;;;;;;;5052124;28;20531;-63
2021/08/02 12:47:16;;;;;;;2.20;0.40;;;;;;;;;;5052714;28;20115;-62
2021/08/02 12:49:41;;;;;;;1.73;0.32;;;;;;;;;;5052692;28;20017;-62
2021/08/02 12:52:06;;;;;;;1.70;0.50;;;;;;;;;;5053241;28;20033;-62
2021/08/02 12:54:31;;;;;;;0.70;0.20;;;;;;;;;;5054210;28;20040;-65
2021/08/02 12:56:57;;;;;;;0.80;0.47;;;;;;;;;;5051609;28;20490;-62
2021/08/02 12:59:22;;;;;;;1.60;0.52;;;;;;;;;;5052778;28;20356;-62
2021/08/02 13:01:47;;;;;;;3.60;0.75;;;;;;;;;;5052775;28;20360;-60
2021/08/02 13:04:12;;;;;;;0.32;0.20;;;;;;;;;;5052847;28;20063;-62
2021/08/02 13:06:37;;;;;;;2.97;1.38;;;;;;;;;;5053504;28;20017;-61
2021/08/02 13:09:03;;;;;;;18.47;12.57;;;;;;;;;;5053242;28;20459;-70
2021/08/02 13:11:28;;;;;;;13.93;9.25;;;;;;;;;;5052100;28;20274;-65
2021/08/02 13:13:54;;;;;;;11.18;7.75;;;;;;;;;;5052836;28;20025;-66
2021/08/02 13:16:19;;;;;;;6.50;4.90;;;;;;;;;;5052938;28;20021;-65
2021/08/02 13:18:45;;;;;;;8.55;4.22;;;;;;;;;;5061264;28;20332;-61
2021/08/02 13:21:11;;;;;;;4.15;2.50;;;;;;;;;;5069923;28;20027;-61
2021/08/02 13:26:55;;;;;;;4.25;2.35;;;;;;;;;;5061861;28;20108;-62
2021/08/02 13:29:05;;;;;;;3.42;1.65;;;;;;;;;;5051247;28;20426;-62
2021/08/02 13:31:30;;;;;;;2.93;1.50;;;;;;;;;;5052659;28;20024;-63
2021/08/02 13:33:56;;;;;;;2.80;0.95;;;;;;;;;;5052572;28;20388;-64
2021/08/02 13:36:21;;;;;;;1.23;0.88;;;;;;;;;;5052445;28;20056;-68
2021/08/02 13:38:46;;;;;;;11.47;1.80;;;;;;;;;;5034574;28;20100;-64
2021/08/02 13:41:11;;;;;;;4.97;0.80;;;;;;;;;;5043993;28;20288;-66
2021/08/02 13:43:36;;;;;;;1.48;1.10;;;;;;;;;;5052525;28;20067;-66
2021/08/02 13:46:03;;;;;;;1.97;0.83;;;;;;;;;;5051963;28;20028;-64
2021/08/02 13:48:29;;;;;;;2.97;0.60;;;;;;;;;;5059223;28;20613;-63
2021/08/02 13:50:54;;;;;;;1.55;0.60;;;;;;;;;;5056040;28;20485;-62
2021/08/02 13:53:19;;;;;;;1.77;0.70;;;;;;;;;;5051769;28;20406;-65
2021/08/02 13:55:44;;;;;;;1.02;0.50;;;;;;;;;;5052617;28;20262;-61
2021/08/02 13:58:10;;;;;;;1.50;0.60;;;;;;;;;;5051863;28;20036;-63
2021/08/02 14:00:35;;;;;;;1.38;0.50;;;;;;;;;;5052157;28;20049;-63
2021/08/02 14:03:00;;;;;;;0.70;0.40;;;;;;;;;;5064432;28;20483;-65
2021/08/02 14:05:26;;;;;;;5.57;0.70;;;;;;;;;;5072744;28;20055;-61
2021/08/02 14:07:51;;;;;;;1.40;0.32;;;;;;;;;;5072518;28;20258;-61
2021/08/02 14:10:17;;;;;;;3.13;0.50;;;;;;;;;;5053179;28;20021;-60
2021/08/02 14:12:45;;;;;;;0.85;0.30;;;;;;;;;;5052441;28;20356;-60
2021/08/02 14:15:10;;;;;;;0.65;0.38;;;;;;;;;;5052590;28;20021;-59
2021/08/02 14:17:56;;;;;;;1.10;0.30;;;;;;;;;;5060324;28;20013;-60
2021/08/02 14:20:21;;;;;;;1.25;0.40;;;;;;;;;;5032702;28;20033;-60
2021/08/02 14:22:47;;;;;;;1.30;0.40;;;;;;;;;;5034294;28;20040;-62
2021/08/02 14:25:13;;;;;;;1.20;0.38;;;;;;;;;;5034210;28;20041;-59
2021/08/02 14:27:38;;;;;;;1.10;0.30;;;;;;;;;;5034624;28;20481;-60
2021/08/02 14:30:06;;;;;;;0.25;0.10;;;;;;;;;;5030707;28;20140;-59
2021/08/02 14:32:32;;;;;;;1.63;0.40;;;;;;;;;;5030259;28;20441;-59
2021/08/02 14:34:57;;;;;;;0.70;0.30;;;;;;;;;;5033888;28;20060;-60
2021/08/02 14:37:23;;;;;;;1.25;0.30;;;;;;;;;;5018508;28;20033;-59
2021/08/02 14:39:49;;;;;;;1.42;0.30;;;;;;;;;;5027451;28;20033;-59
2021/08/02 14:42:15;;;;;;;1.15;0.20;;;;;;;;;;5032552;28;20065;-59
2021/08/02 14:44:41;;;;;;;0.93;0.25;;;;;;;;;;5040163;28;20067;-59